Cajamarca, Peru
Current Conditions -  °F | °C
As of 5:00 AM on Thursday 27 Nov 2014 (Local Time) from SPJR Reporting Station
Clear Clear  
Wind Chill: 46°   Ceiling: Unl
Heat Index: 46°   Visibility: 6mi
Dew Point: 43°   Wind: 2mph
Humidity: 87%   Direction: NA
Pressure: 30.33"   Gusts: NA
Location:  7.16°S, 78.52°W
Report Text: SPJR 271000Z VRB02KT CAVOK 08/06 Q1027 RMK PP000
Loading
Personal Weather Stations






























Interactive Weather Map New forecast layout! Learn more

10-Day Weather Forecast

Advertisements
Track Severe Weather on mobile